createdAt,value
2023-05-14T00:01:29.063Z,1022.103
2023-05-14T00:06:29.108Z,1022.016
2023-05-14T00:11:29.139Z,1021.943
2023-05-14T00:16:29.177Z,1021.924
2023-05-14T00:21:38.975Z,1021.896
2023-05-14T00:26:29.031Z,1021.843
2023-05-14T00:31:29.165Z,1021.804
2023-05-14T00:36:29.054Z,1021.767
2023-05-14T00:41:28.929Z,1021.743
2023-05-14T00:46:29.407Z,1021.73
2023-05-14T00:51:38.387Z,1021.635
2023-05-14T00:56:29.206Z,1021.589
2023-05-14T01:01:28.928Z,1021.558
2023-05-14T01:06:33.251Z,1021.572
2023-05-14T01:11:33.217Z,1021.543
2023-05-14T01:16:32.756Z,1021.473
2023-05-14T01:21:46.466Z,1021.465
2023-05-14T01:26:31.310Z,1021.411
2023-05-14T01:31:31.379Z,1021.439
2023-05-14T01:36:29.361Z,1021.456
2023-05-14T01:41:29.545Z,1021.421
2023-05-14T01:46:29.029Z,1021.373
2023-05-14T01:51:29.315Z,1021.375
2023-05-14T01:56:29.278Z,1021.358
2023-05-14T02:01:29.177Z,1021.35
2023-05-14T02:06:28.971Z,1021.309
2023-05-14T02:11:29.186Z,1021.283
2023-05-14T02:16:29.118Z,1021.281
2023-05-14T02:21:29.198Z,1021.208
2023-05-14T02:26:29.060Z,1021.167
2023-05-14T02:31:28.933Z,1021.087
2023-05-14T02:36:29.092Z,1021.076
2023-05-14T02:41:29.156Z,1021.018
2023-05-14T02:46:32.322Z,1021.03
2023-05-14T02:51:31.835Z,1021.065
2023-05-14T02:56:28.925Z,1021.051
2023-05-14T03:01:29.157Z,1021.001
2023-05-14T03:06:29.022Z,1020.997
2023-05-14T03:11:29.061Z,1020.993
2023-05-14T03:16:29.139Z,1021.043
2023-05-14T03:21:31.868Z,1021.005
2023-05-14T03:26:29.011Z,1020.893
2023-05-14T03:31:29.067Z,1020.865
2023-05-14T03:36:28.835Z,1020.827
2023-05-14T03:41:31.778Z,1020.76
2023-05-14T03:46:29.082Z,1020.776
2023-05-14T03:51:28.965Z,1020.674
2023-05-14T03:56:28.938Z,1020.652
2023-05-14T04:01:28.867Z,1020.622
2023-05-14T04:06:28.988Z,1020.679
2023-05-14T04:11:28.910Z,1020.713
2023-05-14T04:16:30.846Z,1020.815
2023-05-14T04:21:28.884Z,1020.82
2023-05-14T04:26:29.111Z,1020.736
2023-05-14T04:31:29.114Z,1020.848
2023-05-14T04:36:29.008Z,1020.909
2023-05-14T04:41:28.837Z,1020.799
2023-05-14T04:46:29.025Z,1020.76
2023-05-14T04:51:28.809Z,1020.839
2023-05-14T04:56:28.951Z,1020.814
2023-05-14T05:01:28.915Z,1020.877
2023-05-14T05:06:28.947Z,1020.826
2023-05-14T05:11:29.334Z,1020.778
2023-05-14T05:16:28.850Z,1020.854
2023-05-14T05:21:29.046Z,1020.839
2023-05-14T05:26:29.175Z,1020.848
2023-05-14T05:31:28.828Z,1020.815
2023-05-14T05:36:29.115Z,1020.872
2023-05-14T05:41:30.050Z,1020.82
2023-05-14T05:46:28.931Z,1020.867
2023-05-14T05:51:28.929Z,1020.872
2023-05-14T05:56:28.896Z,1020.84
2023-05-14T06:01:30.586Z,1020.8
2023-05-14T06:06:33.098Z,1020.829
2023-05-14T06:11:28.984Z,1020.747
2023-05-14T06:16:28.968Z,1020.762
2023-05-14T06:21:28.949Z,1020.82
2023-05-14T06:26:28.944Z,1020.893
2023-05-14T06:31:28.956Z,1020.838
2023-05-14T06:36:28.975Z,1020.806
2023-05-14T06:41:29.686Z,1020.875
2023-05-14T06:46:28.858Z,1020.886
2023-05-14T06:51:29.498Z,1020.844
2023-05-14T06:56:28.898Z,1020.839
2023-05-14T07:01:28.999Z,1020.835
2023-05-14T07:06:28.850Z,1020.805
2023-05-14T07:11:28.799Z,1020.845
2023-05-14T07:16:28.980Z,1020.796
2023-05-14T07:21:29.008Z,1020.871
2023-05-14T07:26:28.958Z,1020.885
2023-05-14T07:31:28.874Z,1020.833
2023-05-14T07:36:28.866Z,1020.784
2023-05-14T07:41:28.832Z,1020.815
2023-05-14T07:46:31.738Z,1020.91
2023-05-14T07:51:28.904Z,1020.867
2023-05-14T07:56:29.019Z,1020.747
2023-05-14T08:01:30.113Z,1020.654
2023-05-14T08:06:29.596Z,1020.726
2023-05-14T08:11:30.249Z,1020.712
2023-05-14T08:16:29.379Z,1020.66
2023-05-14T08:21:28.699Z,1020.596
2023-05-14T08:26:29.034Z,1020.587
2023-05-14T08:31:28.913Z,1020.566
2023-05-14T08:36:28.827Z,1020.573
2023-05-14T08:41:29.367Z,1020.508
2023-05-14T08:46:30.192Z,1020.43
2023-05-14T08:51:28.790Z,1020.31
2023-05-14T08:56:29.417Z,1020.257
2023-05-14T09:01:29.876Z,1020.142
2023-05-14T09:06:29.648Z,1020.145
2023-05-14T09:11:29.901Z,1020.151
2023-05-14T09:16:29.592Z,1020.181
2023-05-14T09:21:30.535Z,1020.073
2023-05-14T09:26:31.504Z,1020.073
2023-05-14T09:31:28.848Z,1020.078
2023-05-14T09:36:29.500Z,1020.006
2023-05-14T09:41:28.843Z,1019.919
2023-05-14T09:46:31.370Z,1019.895
2023-05-14T09:51:28.723Z,1019.889
2023-05-14T09:56:29.004Z,1019.91
2023-05-14T10:01:29.707Z,1019.879
2023-05-14T10:06:29.722Z,1019.871
2023-05-14T10:11:29.564Z,1019.872
2023-05-14T10:16:32.202Z,1019.791
2023-05-14T10:21:29.552Z,1019.776
2023-05-14T10:26:28.966Z,1019.798
2023-05-14T10:31:40.615Z,1019.7
2023-05-14T10:36:29.379Z,1019.639
2023-05-14T10:41:29.168Z,1019.49
2023-05-14T10:46:29.521Z,1019.484
2023-05-14T10:51:29.013Z,1019.467
2023-05-14T10:56:29.034Z,1019.332
2023-05-14T11:01:28.868Z,1019.345
2023-05-14T11:06:31.381Z,1019.322
2023-05-14T11:11:28.659Z,1019.256
2023-05-14T11:16:30.769Z,1019.232
2023-05-14T11:21:28.758Z,1019.171
2023-05-14T11:26:28.920Z,1019.158
2023-05-14T11:31:29.509Z,1019.145
2023-05-14T11:36:28.888Z,1019.08
2023-05-14T11:41:30.920Z,1019.055
2023-05-14T11:46:30.966Z,1019.023
2023-05-14T11:51:28.963Z,1018.936
2023-05-14T11:56:29.069Z,1018.924
2023-05-14T12:01:30.162Z,1018.929
2023-05-14T12:06:34.430Z,1018.858
2023-05-14T12:11:28.884Z,1018.859
2023-05-14T12:16:34.872Z,1018.809
2023-05-14T12:21:31.388Z,1018.825
2023-05-14T12:26:30.093Z,1018.738
2023-05-14T12:31:36.264Z,1018.746
2023-05-14T12:36:29.333Z,1018.727
2023-05-14T12:41:28.732Z,1018.588
2023-05-14T12:46:29.675Z,1018.571
2023-05-14T12:51:29.044Z,1018.565
2023-05-14T12:56:30.905Z,1018.519
2023-05-14T13:01:32.095Z,1018.512
2023-05-14T13:06:29.131Z,1018.509
2023-05-14T13:11:30.380Z,1018.539
2023-05-14T13:16:28.825Z,1018.504
2023-05-14T13:21:28.870Z,1018.511
2023-05-14T13:26:30.494Z,1018.529
2023-05-14T13:31:28.942Z,1018.455
2023-05-14T13:36:28.828Z,1018.489
2023-05-14T13:41:30.016Z,1018.435
2023-05-14T13:46:28.865Z,1018.447
2023-05-14T13:51:29.247Z,1018.376
2023-05-14T13:56:28.733Z,1018.304
2023-05-14T14:01:30.797Z,1018.27
2023-05-14T14:06:32.374Z,1018.191
2023-05-14T14:11:28.789Z,1018.176
2023-05-14T14:16:28.755Z,1018.128
2023-05-14T14:21:28.836Z,1018.023
2023-05-14T14:26:29.229Z,1018.037
2023-05-14T14:31:31.971Z,1018.048
2023-05-14T14:36:28.864Z,1018.009
2023-05-14T14:41:28.824Z,1017.982
2023-05-14T14:46:28.807Z,1017.953
2023-05-14T14:51:30.153Z,1017.987
2023-05-14T14:56:28.843Z,1018.031
2023-05-14T15:01:28.973Z,1018.032
2023-05-14T15:06:28.772Z,1018.019
2023-05-14T15:11:31.420Z,1018.047
2023-05-14T15:16:28.870Z,1018.097
2023-05-14T15:21:29.005Z,1018.085
2023-05-14T15:26:28.865Z,1018.074
2023-05-14T15:31:28.987Z,1018.007
2023-05-14T15:36:28.912Z,1018.045
2023-05-14T15:41:29.617Z,1018
2023-05-14T15:46:28.794Z,1017.966
2023-05-14T15:51:29.869Z,1018.018
2023-05-14T15:56:28.837Z,1018.059
2023-05-14T16:01:28.743Z,1018.006
2023-05-14T16:06:29.574Z,1018.073
2023-05-14T16:11:29.096Z,1018.039
2023-05-14T16:16:28.974Z,1018.018
2023-05-14T16:21:34.260Z,1018.109
2023-05-14T16:26:28.844Z,1018.104
2023-05-14T16:31:31.352Z,1018.098
2023-05-14T16:36:28.960Z,1018.132
2023-05-14T16:41:28.841Z,1018.172
2023-05-14T16:46:29.501Z,1018.222
2023-05-14T16:51:31.728Z,1018.279
2023-05-14T16:56:36.428Z,1018.234
2023-05-14T17:01:29.036Z,1018.231
2023-05-14T17:06:29.153Z,1018.227
2023-05-14T17:11:28.860Z,1018.225
2023-05-14T17:16:28.915Z,1018.112
2023-05-14T17:21:28.832Z,1018.096
2023-05-14T17:26:28.872Z,1018.088
2023-05-14T17:31:28.758Z,1018.082
2023-05-14T17:36:31.617Z,1018.059
2023-05-14T17:41:28.990Z,1018.031
2023-05-14T17:46:28.922Z,1018.016
2023-05-14T17:51:28.744Z,1017.977
2023-05-14T17:56:28.776Z,1017.935
2023-05-14T18:01:28.986Z,1018.011
2023-05-14T18:06:28.865Z,1018.117
2023-05-14T18:11:32.726Z,1018.093
2023-05-14T18:16:29.061Z,1018.108
2023-05-14T18:21:28.825Z,1018.081
2023-05-14T18:26:28.861Z,1018.055
2023-05-14T18:31:29.095Z,1018.094
2023-05-14T18:36:28.992Z,1018.17
2023-05-14T18:41:28.897Z,1018.222
2023-05-14T18:46:29.125Z,1018.255
2023-05-14T18:51:29.396Z,1018.316
2023-05-14T18:56:28.906Z,1018.343
2023-05-14T19:01:29.145Z,1018.268
2023-05-14T19:06:28.884Z,1018.302
2023-05-14T19:11:28.841Z,1018.301
2023-05-14T19:16:29.070Z,1018.273
2023-05-14T19:21:29.036Z,1018.21
2023-05-14T19:26:28.977Z,1018.166
2023-05-14T19:31:28.882Z,1018.172
2023-05-14T19:36:28.818Z,1018.173
2023-05-14T19:41:28.985Z,1018.185
2023-05-14T19:46:29.138Z,1018.16
2023-05-14T19:51:29.068Z,1018.225
2023-05-14T19:56:28.892Z,1018.258
2023-05-14T20:01:29.425Z,1018.27
2023-05-14T20:06:28.960Z,1018.23
2023-05-14T20:11:31.821Z,1018.185
2023-05-14T20:16:28.757Z,1018.198
2023-05-14T20:21:28.919Z,1018.26
2023-05-14T20:26:28.953Z,1018.214
2023-05-14T20:31:29.043Z,1018.216
2023-05-14T20:36:29.910Z,1018.192
2023-05-14T20:41:28.886Z,1018.075
2023-05-14T20:46:29.852Z,1017.958
2023-05-14T20:51:28.811Z,1017.888
2023-05-14T20:56:28.820Z,1018.047
2023-05-14T21:01:29.240Z,1018.073
2023-05-14T21:06:28.851Z,1017.944
2023-05-14T21:11:28.848Z,1017.915
2023-05-14T21:16:28.959Z,1018.031
2023-05-14T21:21:28.633Z,1018.064
2023-05-14T21:26:30.338Z,1018.145
2023-05-14T21:31:28.988Z,1018.122
2023-05-14T21:36:28.844Z,1017.99
2023-05-14T21:41:28.744Z,1017.911
2023-05-14T21:46:29.108Z,1017.872
2023-05-14T21:51:28.834Z,1017.847
2023-05-14T21:56:28.865Z,1017.82
2023-05-14T22:01:28.779Z,1017.72
2023-05-14T22:06:29.200Z,1017.683
2023-05-14T22:11:28.810Z,1017.624
2023-05-14T22:16:28.889Z,1017.58
2023-05-14T22:21:31.604Z,1017.735
2023-05-14T22:26:29.070Z,1017.824
2023-05-14T22:31:28.838Z,1017.712
2023-05-14T22:36:29.227Z,1017.724
2023-05-14T22:41:28.957Z,1017.644
2023-05-14T22:46:28.911Z,1017.502
2023-05-14T22:51:28.841Z,1017.455
2023-05-14T22:56:28.897Z,1017.331
2023-05-14T23:01:28.935Z,1017.244
2023-05-14T23:06:29.106Z,1017.267
2023-05-14T23:11:29.300Z,1017.271
2023-05-14T23:16:28.834Z,1017.236
2023-05-14T23:21:28.891Z,1017.255
2023-05-14T23:26:28.905Z,1017.154
2023-05-14T23:31:28.924Z,1017.126
2023-05-14T23:36:31.425Z,1017.142
2023-05-14T23:41:28.914Z,1017.154
2023-05-14T23:46:29.015Z,1017.094
2023-05-14T23:51:29.651Z,1017.03
2023-05-14T23:56:29.080Z,1016.989
